createdAt,value
2023-04-18T00:00:34.783Z,19.60
2023-04-18T00:03:04.096Z,23.00
2023-04-18T00:05:31.700Z,23.63
2023-04-18T00:07:58.672Z,18.43
2023-04-18T00:10:25.806Z,20.00
2023-04-18T00:12:52.779Z,29.90
2023-04-18T00:15:19.749Z,17.67
2023-04-18T00:17:48.197Z,16.00
2023-04-18T00:20:15.320Z,18.40
2023-04-18T00:22:46.673Z,17.60
2023-04-18T00:25:14.947Z,19.10
2023-04-18T00:27:42.051Z,19.20
2023-04-18T00:30:09.636Z,17.30
2023-04-18T00:32:38.512Z,24.70
2023-04-18T00:35:06.482Z,21.37
2023-04-18T00:37:33.450Z,22.73
2023-04-18T00:40:00.457Z,18.00
2023-04-18T00:42:28.866Z,26.70
2023-04-18T00:44:55.999Z,17.47
2023-04-18T00:47:23.234Z,34.87
2023-04-18T00:49:50.354Z,21.37
2023-04-18T00:52:18.506Z,26.27
2023-04-18T00:54:46.414Z,23.40
2023-04-18T00:57:13.753Z,22.00
2023-04-18T00:59:41.469Z,23.83
2023-04-18T01:02:08.573Z,21.63
2023-04-18T01:04:35.877Z,19.47
2023-04-18T01:07:03.397Z,17.83
2023-04-18T01:09:30.736Z,17.67
2023-04-18T01:11:57.700Z,16.47
2023-04-18T01:14:24.871Z,17.30
2023-04-18T01:16:51.872Z,14.77
2023-04-18T01:19:19.606Z,12.97
2023-04-18T01:21:47.308Z,15.27
2023-04-18T01:24:16.886Z,15.97
2023-04-18T01:26:47.638Z,19.20
2023-04-18T01:29:14.847Z,23.77
2023-04-18T01:31:42.183Z,17.73
2023-04-18T01:34:09.448Z,19.43
2023-04-18T01:36:37.747Z,21.53
2023-04-18T01:39:04.936Z,24.50
2023-04-18T01:41:32.878Z,25.73
2023-04-18T01:44:00.617Z,20.30
2023-04-18T01:46:28.588Z,18.77
2023-04-18T01:48:56.850Z,24.53
2023-04-18T01:51:24.020Z,18.00
2023-04-18T01:53:53.532Z,28.03
2023-04-18T01:56:20.996Z,23.33
2023-04-18T01:58:48.274Z,25.63
2023-04-18T02:01:15.396Z,33.13
2023-04-18T02:03:42.691Z,20.00
2023-04-18T02:06:10.165Z,31.27
2023-04-18T02:08:37.194Z,18.60
2023-04-18T02:11:06.753Z,22.83
2023-04-18T02:13:33.716Z,19.47
2023-04-18T02:16:00.758Z,22.33
2023-04-18T02:18:28.097Z,17.70
2023-04-18T02:20:55.129Z,19.47
2023-04-18T02:23:22.625Z,19.80
2023-04-18T02:25:50.803Z,21.43
2023-04-18T02:28:17.941Z,25.77
2023-04-18T02:30:44.993Z,19.00
2023-04-18T02:33:11.955Z,22.70
2023-04-18T02:35:38.999Z,28.10
2023-04-18T02:38:06.443Z,19.30
2023-04-18T02:40:33.537Z,20.83
2023-04-18T02:43:01.443Z,31.83
2023-04-18T02:45:29.448Z,21.17
2023-04-18T02:47:59.393Z,26.70
2023-04-18T02:50:27.061Z,18.00
2023-04-18T02:52:55.900Z,29.70
2023-04-18T02:55:26.965Z,20.97
2023-04-18T02:57:57.419Z,20.97
2023-04-18T03:00:42.930Z,20.80
2023-04-18T03:03:28.438Z,20.03
2023-04-18T03:06:15.756Z,22.20
2023-04-18T03:08:42.877Z,24.80
2023-04-18T03:11:09.983Z,22.60
2023-04-18T03:13:37.156Z,27.40
2023-04-18T03:16:05.293Z,19.00
2023-04-18T03:18:33.347Z,19.27
2023-04-18T03:21:00.745Z,26.80
2023-04-18T03:23:29.296Z,19.50
2023-04-18T03:25:56.459Z,29.10
2023-04-18T03:28:23.896Z,24.10
2023-04-18T03:30:50.858Z,28.70
2023-04-18T03:33:18.244Z,16.27
2023-04-18T03:35:47.438Z,17.30
2023-04-18T03:38:14.545Z,23.07
2023-04-18T03:40:43.623Z,23.43
2023-04-18T03:43:20.998Z,31.20
2023-04-18T03:45:48.502Z,25.97
2023-04-18T03:48:17.307Z,21.37
2023-04-18T03:50:46.042Z,20.67
2023-04-18T03:53:14.339Z,22.67
2023-04-18T03:55:41.903Z,17.23
2023-04-18T03:58:10.202Z,20.87
2023-04-18T04:00:37.362Z,27.20
2023-04-18T04:03:08.570Z,18.83
2023-04-18T04:05:35.822Z,17.97
2023-04-18T04:08:02.941Z,23.00
2023-04-18T04:10:30.070Z,19.20
2023-04-18T04:12:57.411Z,20.93
2023-04-18T04:15:24.477Z,20.70
2023-04-18T04:18:03.188Z,30.00
2023-04-18T04:20:31.402Z,15.70
2023-04-18T04:23:07.027Z,22.00
2023-04-18T04:25:36.020Z,25.30
2023-04-18T04:28:08.681Z,21.37
2023-04-18T04:30:46.718Z,25.70
2023-04-18T04:33:13.863Z,19.17
2023-04-18T04:35:41.748Z,21.73
2023-04-18T04:38:08.752Z,24.03
2023-04-18T04:40:44.041Z,22.67
2023-04-18T04:43:15.257Z,21.90
2023-04-18T04:45:44.590Z,21.90
2023-04-18T04:48:12.367Z,22.63
2023-04-18T04:50:42.059Z,19.93
2023-04-18T04:53:11.871Z,22.20
2023-04-18T04:55:39.597Z,18.30
2023-04-18T04:58:07.171Z,18.63
2023-04-18T05:00:58.203Z,18.33
2023-04-18T05:03:25.454Z,23.77
2023-04-18T05:05:52.882Z,25.33
2023-04-18T05:08:19.879Z,25.17
2023-04-18T05:10:47.652Z,20.87
2023-04-18T05:13:14.575Z,20.60
2023-04-18T05:15:41.570Z,23.40
2023-04-18T05:18:08.557Z,21.23
2023-04-18T05:20:35.874Z,20.60
2023-04-18T05:23:02.849Z,19.50
2023-04-18T05:25:30.056Z,23.73
2023-04-18T05:27:57.193Z,26.07
2023-04-18T05:30:24.199Z,20.33
2023-04-18T05:32:51.253Z,26.23
2023-04-18T05:35:18.320Z,21.97
2023-04-18T05:37:45.296Z,24.20
2023-04-18T05:40:13.196Z,20.53
2023-04-18T05:42:40.413Z,24.80
2023-04-18T05:45:08.243Z,29.80
2023-04-18T05:47:35.517Z,19.23
2023-04-18T05:50:02.439Z,22.70
2023-04-18T05:52:29.402Z,28.47
2023-04-18T05:54:56.451Z,16.03
2023-04-18T05:57:23.456Z,22.73
2023-04-18T05:59:50.580Z,21.87
2023-04-18T06:02:17.600Z,21.33
2023-04-18T06:04:45.181Z,19.33
2023-04-18T06:07:12.388Z,25.80
2023-04-18T06:09:39.367Z,24.20
2023-04-18T06:12:06.423Z,28.33
2023-04-18T06:14:33.795Z,17.43
2023-04-18T06:17:00.774Z,22.43
2023-04-18T06:19:27.888Z,25.00
2023-04-18T06:21:54.898Z,32.43
2023-04-18T06:24:21.927Z,22.93
2023-04-18T06:26:49.003Z,19.47
2023-04-18T06:29:17.983Z,26.10
2023-04-18T06:31:46.748Z,25.20
2023-04-18T06:34:14.095Z,24.57
2023-04-18T06:36:41.229Z,21.80
2023-04-18T06:39:08.561Z,23.30
2023-04-18T06:41:35.532Z,24.17
2023-04-18T06:44:04.414Z,25.90
2023-04-18T06:46:32.630Z,25.80
2023-04-18T06:49:00.212Z,26.30
2023-04-18T06:51:27.393Z,22.80
2023-04-18T06:53:54.417Z,32.73
2023-04-18T06:56:22.152Z,21.03
2023-04-18T06:58:49.824Z,19.43
2023-04-18T07:01:16.898Z,21.80
2023-04-18T07:03:44.088Z,19.97
2023-04-18T07:06:11.244Z,25.90
2023-04-18T07:08:38.581Z,23.10
2023-04-18T07:11:06.919Z,22.73
2023-04-18T07:13:33.991Z,29.57
2023-04-18T07:16:01.494Z,22.43
2023-04-18T07:18:37.411Z,20.90
2023-04-18T07:21:08.762Z,26.90
2023-04-18T07:23:35.980Z,26.53
2023-04-18T07:26:05.525Z,21.83
2023-04-18T07:28:33.078Z,26.23
2023-04-18T07:31:01.213Z,21.90
2023-04-18T07:33:31.561Z,21.30
2023-04-18T07:35:58.728Z,28.53
2023-04-18T07:38:25.719Z,26.27
2023-04-18T07:41:01.105Z,21.90
2023-04-18T07:43:28.061Z,24.77
2023-04-18T07:45:55.291Z,22.13
2023-04-18T07:48:22.679Z,18.83
2023-04-18T07:50:49.896Z,20.10
2023-04-18T07:53:16.964Z,26.40
2023-04-18T07:55:45.361Z,21.97
2023-04-18T07:58:12.878Z,23.70
2023-04-18T08:00:42.385Z,21.80
2023-04-18T08:03:13.328Z,22.00
2023-04-18T08:05:42.427Z,21.50
2023-04-18T08:08:11.759Z,23.67
2023-04-18T08:10:39.032Z,22.60
2023-04-18T08:13:06.908Z,17.53
2023-04-18T08:15:34.007Z,30.73
2023-04-18T08:18:01.558Z,23.37
2023-04-18T08:20:28.830Z,22.20
2023-04-18T08:25:25.997Z,19.50
2023-04-18T08:27:53.082Z,21.27
2023-04-18T08:30:20.024Z,21.53
2023-04-18T08:32:47.109Z,22.77
2023-04-18T08:35:14.200Z,21.63
2023-04-18T08:37:41.435Z,19.33
2023-04-18T08:40:08.904Z,18.60
2023-04-18T08:42:38.282Z,24.87
2023-04-18T08:45:07.066Z,20.40
2023-04-18T08:47:35.724Z,23.50
2023-04-18T08:50:03.180Z,19.57
2023-04-18T08:52:32.488Z,22.00
2023-04-18T08:54:59.745Z,18.57
2023-04-18T08:57:27.373Z,19.13
2023-04-18T08:59:55.260Z,25.10
2023-04-18T09:02:35.225Z,19.30
2023-04-18T09:05:20.018Z,15.17
2023-04-18T09:07:49.683Z,18.97
2023-04-18T09:10:31.047Z,16.50
2023-04-18T09:13:01.012Z,17.53
2023-04-18T09:15:29.536Z,17.10
2023-04-18T09:18:00.356Z,17.40
2023-04-18T09:20:43.634Z,18.10
2023-04-18T09:23:19.577Z,15.70
2023-04-18T09:25:49.001Z,15.63
2023-04-18T09:28:28.832Z,16.03
2023-04-18T09:31:11.965Z,17.13
2023-04-18T09:33:44.784Z,15.87
2023-04-18T09:36:31.192Z,19.17
2023-04-18T09:38:58.336Z,13.63
2023-04-18T09:41:25.276Z,14.63
2023-04-18T09:44:15.683Z,13.90
2023-04-18T09:46:46.668Z,14.83
2023-04-18T09:49:14.907Z,13.13
2023-04-18T09:51:44.443Z,15.00
2023-04-18T09:54:15.442Z,14.63
2023-04-18T09:56:47.503Z,11.73
2023-04-18T09:59:21.098Z,11.53
2023-04-18T10:01:49.762Z,13.40
2023-04-18T10:04:18.097Z,12.30
2023-04-18T10:06:46.932Z,12.77
2023-04-18T10:09:15.964Z,10.23
2023-04-18T10:11:44.397Z,14.50
2023-04-18T10:14:14.022Z,9.50
2023-04-18T10:16:42.967Z,14.70
2023-04-18T10:19:27.145Z,10.83
2023-04-18T10:22:00.948Z,11.07
2023-04-18T10:24:53.641Z,12.77
2023-04-18T10:27:49.023Z,11.63
2023-04-18T10:30:17.867Z,11.03
2023-04-18T10:32:47.878Z,13.00
2023-04-18T10:35:14.886Z,9.20
2023-04-18T10:38:00.238Z,10.83
2023-04-18T10:40:34.644Z,8.87
2023-04-18T10:43:02.217Z,9.47
2023-04-18T10:45:32.488Z,9.40
2023-04-18T10:48:30.119Z,8.93
2023-04-18T10:51:16.698Z,9.67
2023-04-18T10:53:54.184Z,9.77
2023-04-18T10:56:21.683Z,11.17
2023-04-18T10:58:52.960Z,9.00
2023-04-18T11:01:31.764Z,10.73
2023-04-18T11:04:00.461Z,11.77
2023-04-18T11:06:27.827Z,8.60
2023-04-18T11:09:14.487Z,12.40
2023-04-18T11:11:42.465Z,12.07
2023-04-18T11:14:09.642Z,13.00
2023-04-18T11:16:37.106Z,16.07
2023-04-18T11:19:23.784Z,9.23
2023-04-18T11:21:51.780Z,11.30
2023-04-18T11:24:24.128Z,13.33
2023-04-18T11:26:55.546Z,11.63
2023-04-18T11:29:22.756Z,9.77
2023-04-18T11:31:56.620Z,8.60
2023-04-18T11:34:30.744Z,14.50
2023-04-18T11:36:58.106Z,10.20
2023-04-18T11:39:25.311Z,8.70
2023-04-18T11:41:52.605Z,8.17
2023-04-18T11:44:26.660Z,7.20
2023-04-18T11:46:54.202Z,7.10
2023-04-18T11:49:39.628Z,6.20
2023-04-18T11:52:13.489Z,7.40
2023-04-18T11:54:43.929Z,5.60
2023-04-18T11:57:28.266Z,5.67
2023-04-18T12:00:00.842Z,12.40
2023-04-18T12:02:44.135Z,5.60
2023-04-18T12:05:14.519Z,6.83
2023-04-18T12:07:44.659Z,5.30
2023-04-18T12:10:20.922Z,5.93
2023-04-18T12:12:53.604Z,6.50
2023-04-18T12:15:23.972Z,4.10
2023-04-18T12:17:53.796Z,4.93
2023-04-18T12:20:24.717Z,5.77
2023-04-18T12:22:54.172Z,5.80
2023-04-18T12:25:26.972Z,5.83
2023-04-18T12:28:03.592Z,6.10
2023-04-18T12:30:36.861Z,4.87
2023-04-18T12:33:04.926Z,5.60
2023-04-18T12:35:32.781Z,4.80
2023-04-18T12:38:02.048Z,5.70
2023-04-18T12:40:30.118Z,5.50
2023-04-18T12:42:57.135Z,5.60
2023-04-18T12:45:24.604Z,5.10
2023-04-18T12:47:52.636Z,4.67
2023-04-18T12:50:23.042Z,6.23
2023-04-18T12:52:53.657Z,5.20
2023-04-18T12:55:22.632Z,4.63
2023-04-18T12:57:54.477Z,4.90
2023-04-18T13:00:23.774Z,5.47
2023-04-18T13:02:52.552Z,4.57
2023-04-18T13:05:23.979Z,4.30
2023-04-18T13:07:58.704Z,8.40
2023-04-18T13:10:32.172Z,5.60
2023-04-18T13:12:59.230Z,6.00
2023-04-18T13:15:27.543Z,5.23
2023-04-18T13:17:55.962Z,5.93
2023-04-18T13:20:23.027Z,7.23
2023-04-18T13:22:50.180Z,7.17
2023-04-18T13:25:17.248Z,6.07
2023-04-18T13:27:45.849Z,6.40
2023-04-18T13:30:13.241Z,7.10
2023-04-18T13:32:41.876Z,5.13
2023-04-18T13:35:10.832Z,6.87
2023-04-18T13:37:38.545Z,5.90
2023-04-18T13:40:07.025Z,5.30
2023-04-18T13:42:35.934Z,5.93
2023-04-18T13:45:03.694Z,5.30
2023-04-18T13:47:30.808Z,5.53
2023-04-18T13:49:58.013Z,5.07
2023-04-18T13:52:25.919Z,5.97
2023-04-18T13:54:53.032Z,4.53
2023-04-18T13:57:20.890Z,6.43
2023-04-18T13:59:47.920Z,5.33
2023-04-18T14:02:15.202Z,4.77
2023-04-18T14:04:42.608Z,5.20
2023-04-18T14:07:09.672Z,5.97
2023-04-18T14:09:36.604Z,6.93
2023-04-18T14:12:03.791Z,5.67
2023-04-18T14:14:30.893Z,5.40
2023-04-18T14:16:57.919Z,5.70
2023-04-18T14:19:27.185Z,6.40
2023-04-18T14:21:54.198Z,15.67
2023-04-18T14:24:21.267Z,6.70
2023-04-18T14:26:48.303Z,6.13
2023-04-18T14:29:15.666Z,6.93
2023-04-18T14:31:43.027Z,5.83
2023-04-18T14:34:10.024Z,5.30
2023-04-18T14:36:37.353Z,6.60
2023-04-18T14:39:04.835Z,6.60
2023-04-18T14:41:31.963Z,6.83
2023-04-18T14:43:59.428Z,5.63
2023-04-18T14:46:28.208Z,6.37
2023-04-18T14:48:55.309Z,5.77
2023-04-18T14:51:23.247Z,6.10
2023-04-18T14:53:50.415Z,6.17
2023-04-18T14:56:21.013Z,5.80
2023-04-18T14:58:48.427Z,5.70
2023-04-18T15:01:17.446Z,6.60
2023-04-18T15:03:45.217Z,7.37
2023-04-18T15:06:12.555Z,10.10
2023-04-18T15:08:39.533Z,6.63
2023-04-18T15:11:09.507Z,6.93
2023-04-18T15:13:36.997Z,6.80
2023-04-18T15:16:04.099Z,6.77
2023-04-18T15:18:31.104Z,7.57
2023-04-18T15:20:59.765Z,7.60
2023-04-18T15:23:27.517Z,10.50
2023-04-18T15:25:54.645Z,6.87
2023-04-18T15:28:21.599Z,6.87
2023-04-18T15:30:48.655Z,7.00
2023-04-18T15:33:17.399Z,7.57
2023-04-18T15:35:45.029Z,8.03
2023-04-18T15:38:12.164Z,7.83
2023-04-18T15:40:39.105Z,7.70
2023-04-18T15:43:06.355Z,6.60
2023-04-18T15:45:33.930Z,6.43
2023-04-18T15:48:01.036Z,7.70
2023-04-18T15:50:28.363Z,7.60
2023-04-18T15:52:56.355Z,7.93
2023-04-18T15:55:23.284Z,7.37
2023-04-18T15:57:50.320Z,6.67
2023-04-18T16:00:17.951Z,8.97
2023-04-18T16:02:45.838Z,7.80
2023-04-18T16:05:13.935Z,8.70
2023-04-18T16:07:42.284Z,8.77
2023-04-18T16:10:11.156Z,6.77
2023-04-18T16:12:39.647Z,8.03
2023-04-18T16:15:08.967Z,7.50
2023-04-18T16:17:37.318Z,7.00
2023-04-18T16:20:09.198Z,6.47
2023-04-18T16:22:37.441Z,6.10
2023-04-18T16:25:06.248Z,7.03
2023-04-18T16:27:33.506Z,5.80
2023-04-18T16:30:00.684Z,7.07
2023-04-18T16:32:27.713Z,7.27
2023-04-18T16:34:54.745Z,6.07
2023-04-18T16:37:21.801Z,6.60
2023-04-18T16:39:48.735Z,6.50
2023-04-18T16:42:16.076Z,7.03
2023-04-18T16:44:44.717Z,6.57
2023-04-18T16:47:11.800Z,6.43
2023-04-18T16:49:38.878Z,6.17
2023-04-18T16:52:05.966Z,6.37
2023-04-18T16:54:32.958Z,8.10
2023-04-18T16:56:59.900Z,6.20
2023-04-18T16:59:26.977Z,10.33
2023-04-18T17:01:54.029Z,6.43
2023-04-18T17:04:21.976Z,5.53
2023-04-18T17:06:51.472Z,7.20
2023-04-18T17:09:19.766Z,8.40
2023-04-18T17:11:46.810Z,8.37
2023-04-18T17:14:14.176Z,8.87
2023-04-18T17:16:42.228Z,9.97
2023-04-18T17:19:10.033Z,9.60
2023-04-18T17:21:38.005Z,9.13
2023-04-18T17:24:06.950Z,13.37
2023-04-18T17:26:35.734Z,9.67
2023-04-18T17:29:04.330Z,8.57
2023-04-18T17:31:32.615Z,11.47
2023-04-18T17:34:00.728Z,10.67
2023-04-18T17:36:27.762Z,9.93
2023-04-18T17:38:55.238Z,10.03
2023-04-18T17:41:22.665Z,8.23
2023-04-18T17:43:50.962Z,8.97
2023-04-18T17:46:18.246Z,9.70
2023-04-18T17:48:45.325Z,10.70
2023-04-18T17:51:12.286Z,8.23
2023-04-18T17:53:39.291Z,10.20
2023-04-18T17:56:06.385Z,16.63
2023-04-18T17:58:33.342Z,11.23
2023-04-18T18:01:00.435Z,10.20
2023-04-18T18:03:27.772Z,13.53
2023-04-18T18:05:55.178Z,10.97
2023-04-18T18:08:22.788Z,13.37
2023-04-18T18:10:50.064Z,14.70
2023-04-18T18:13:17.154Z,8.73
2023-04-18T18:15:44.137Z,9.77
2023-04-18T18:18:11.457Z,12.30
2023-04-18T18:20:42.210Z,10.00
2023-04-18T18:23:09.235Z,11.53
2023-04-18T18:25:38.744Z,8.60
2023-04-18T18:28:07.183Z,8.80
2023-04-18T18:30:34.630Z,12.00
2023-04-18T18:33:01.952Z,15.40
2023-04-18T18:35:28.978Z,11.50
2023-04-18T18:37:55.908Z,12.20
2023-04-18T18:40:23.088Z,10.97
2023-04-18T18:42:51.439Z,9.80
2023-04-18T18:45:19.730Z,11.07
2023-04-18T18:47:47.265Z,10.60
2023-04-18T18:50:14.669Z,10.20
2023-04-18T18:52:43.084Z,11.03
2023-04-18T18:55:10.816Z,10.00
2023-04-18T18:57:37.864Z,11.47
2023-04-18T19:00:11.092Z,9.50
2023-04-18T19:02:39.265Z,16.37
2023-04-18T19:05:07.069Z,11.90
2023-04-18T19:07:34.076Z,10.33
2023-04-18T19:10:01.687Z,11.60
2023-04-18T19:12:29.229Z,12.20
2023-04-18T19:14:56.289Z,10.57
2023-04-18T19:17:24.788Z,12.40
2023-04-18T19:19:53.331Z,11.17
2023-04-18T19:22:20.320Z,10.27
2023-04-18T19:24:47.478Z,10.50
2023-04-18T19:27:14.599Z,12.53
2023-04-18T19:29:41.750Z,15.87
2023-04-18T19:32:09.068Z,11.70
2023-04-18T19:34:36.104Z,13.50
2023-04-18T19:37:03.658Z,10.90
2023-04-18T19:39:30.730Z,12.17
2023-04-18T19:41:57.709Z,11.83
2023-04-18T19:44:24.667Z,17.77
2023-04-18T19:46:51.638Z,11.93
2023-04-18T19:49:18.637Z,13.10
2023-04-18T19:51:45.734Z,17.63
2023-04-18T19:54:13.301Z,12.40
2023-04-18T19:56:40.372Z,11.70
2023-04-18T19:59:07.302Z,13.83
2023-04-18T20:01:34.323Z,10.10
2023-04-18T20:04:01.524Z,12.60
2023-04-18T20:06:28.803Z,11.93
2023-04-18T20:08:55.802Z,11.47
2023-04-18T20:11:22.753Z,11.67
2023-04-18T20:13:52.217Z,13.33
2023-04-18T20:16:19.189Z,11.40
2023-04-18T20:18:47.318Z,10.93
2023-04-18T20:21:14.640Z,9.97
2023-04-18T20:23:42.641Z,11.30
2023-04-18T20:26:09.699Z,10.67
2023-04-18T20:28:37.892Z,13.63
2023-04-18T20:31:05.052Z,11.23
2023-04-18T20:33:32.908Z,12.13
2023-04-18T20:36:00.026Z,11.30
2023-04-18T20:38:29.432Z,11.90
2023-04-18T20:40:58.921Z,15.10
2023-04-18T20:43:26.772Z,12.13
2023-04-18T20:45:54.473Z,14.53
2023-04-18T20:48:21.637Z,14.60
2023-04-18T20:50:51.983Z,17.17
2023-04-18T20:53:28.792Z,10.87
2023-04-18T20:55:55.794Z,11.27
2023-04-18T20:58:22.886Z,12.07
2023-04-18T21:00:49.953Z,11.27
2023-04-18T21:03:17.382Z,15.77
2023-04-18T21:05:45.546Z,12.20
2023-04-18T21:08:12.708Z,18.17
2023-04-18T21:10:39.874Z,10.20
2023-04-18T21:13:07.101Z,13.37
2023-04-18T21:15:35.745Z,13.07
2023-04-18T21:18:02.826Z,13.70
2023-04-18T21:20:29.986Z,11.50
2023-04-18T21:22:56.940Z,16.63
2023-04-18T21:25:23.895Z,13.73
2023-04-18T21:27:50.927Z,17.77
2023-04-18T21:30:18.227Z,13.63
2023-04-18T21:32:47.179Z,13.87
2023-04-18T21:35:15.322Z,16.27
2023-04-18T21:37:43.769Z,14.20
2023-04-18T21:40:11.122Z,13.43
2023-04-18T21:42:38.150Z,14.77
2023-04-18T21:45:06.512Z,12.67
2023-04-18T21:47:33.647Z,15.23
2023-04-18T21:50:00.671Z,15.80
2023-04-18T21:52:27.961Z,15.93
2023-04-18T21:54:54.924Z,19.10
2023-04-18T21:57:21.853Z,12.40
2023-04-18T21:59:48.833Z,21.00
2023-04-18T22:02:15.800Z,26.30
2023-04-18T22:04:44.237Z,15.57
2023-04-18T22:07:15.619Z,15.60
2023-04-18T22:09:43.421Z,17.77
2023-04-18T22:12:11.398Z,20.23
2023-04-18T22:14:38.375Z,18.60
2023-04-18T22:17:05.329Z,18.10
2023-04-18T22:19:32.466Z,23.50
2023-04-18T22:21:59.450Z,17.87
2023-04-18T22:24:26.377Z,19.40
2023-04-18T22:26:53.627Z,19.90
2023-04-18T22:29:20.651Z,18.33
2023-04-18T22:31:47.699Z,18.23
2023-04-18T22:34:14.926Z,21.43
2023-04-18T22:36:42.741Z,18.50
2023-04-18T22:39:09.801Z,18.70
2023-04-18T22:41:36.838Z,29.83
2023-04-18T22:44:04.643Z,24.77
2023-04-18T22:46:32.803Z,19.60
2023-04-18T22:48:59.900Z,24.20
2023-04-18T22:51:28.643Z,23.83
2023-04-18T22:53:56.613Z,19.83
2023-04-18T22:56:23.623Z,26.73
2023-04-18T22:58:50.658Z,29.10
2023-04-18T23:01:17.680Z,27.50
2023-04-18T23:03:44.859Z,25.30
2023-04-18T23:06:12.287Z,26.63
2023-04-18T23:08:39.256Z,22.33
2023-04-18T23:11:06.277Z,24.90
2023-04-18T23:13:33.251Z,22.23
2023-04-18T23:16:00.338Z,20.73
2023-04-18T23:18:29.986Z,22.13
2023-04-18T23:20:56.945Z,28.70
2023-04-18T23:23:24.070Z,22.83
2023-04-18T23:25:52.008Z,21.70
2023-04-18T23:28:19.039Z,21.70
2023-04-18T23:30:46.141Z,24.60
2023-04-18T23:33:13.274Z,21.93
2023-04-18T23:35:40.244Z,28.13
2023-04-18T23:38:07.348Z,23.83
2023-04-18T23:40:34.540Z,23.10
2023-04-18T23:43:02.008Z,25.23
2023-04-18T23:45:29.003Z,22.30
2023-04-18T23:47:56.064Z,24.13
2023-04-18T23:50:23.131Z,19.60
2023-04-18T23:52:50.111Z,26.87
2023-04-18T23:55:17.330Z,28.60
2023-04-18T23:57:44.411Z,18.20
